Time;durP1;ratioP1;P1;durP2;ratioP2;P2;SDS_P1;SDS_P2;PMS_P1;PMS_P2;Temp;Humidity;BMP_temperature;BMP_pressure;BME280_temperature;BME280_humidity;BME280_pressure;Samples;Min_cycle;Max_cycle;Signal;HPM_P1;HPM_P2
2022/09/15 00:01:27;;;;;;;11.40;9.40;;;;;;;14.69;84.51;98083.88;446874;1271;142628;-62
2022/09/15 00:11:35;;;;;;;11.60;10.30;;;;;;;14.68;84.88;98077.90;446131;1274;144402;-63
2022/09/15 00:21:42;;;;;;;13.80;12.40;;;;;;;14.65;85.16;98080.17;434515;1274;142946;-61
2022/09/15 00:31:48;;;;;;;14.90;13.50;;;;;;;14.60;85.49;98071.20;444950;1274;142436;-62
2022/09/15 00:41:53;;;;;;;16.30;14.80;;;;;;;14.57;86.20;98071.65;446106;1274;143629;-63
2022/09/15 00:52:04;;;;;;;16.00;14.50;;;;;;;14.56;86.61;98067.54;446853;1274;144939;-62
2022/09/15 01:02:15;;;;;;;15.60;14.00;;;;;;;14.56;86.72;98051.33;446100;1274;142986;-62
2022/09/15 01:12:23;;;;;;;20.40;14.30;;;;;;;14.52;86.82;98046.13;446804;1274;143740;-63
2022/09/15 01:22:40;;;;;;;12.60;11.30;;;;;;;14.41;86.69;98042.73;446822;1273;143036;-63
2022/09/15 01:33:19;;;;;;;9.70;8.70;;;;;;;14.24;86.43;98023.58;446038;1273;143094;-63
2022/09/15 01:43:28;;;;;;;9.40;8.50;;;;;;;14.01;86.11;97999.91;446711;1274;144506;-63
2022/09/15 01:53:35;;;;;;;11.40;9.60;;;;;;;13.92;86.33;97998.70;446088;1274;142963;-63
2022/09/15 02:03:45;;;;;;;10.80;8.60;;;;;;;13.89;86.71;97997.64;437360;1274;142881;-63
2022/09/15 02:14:02;;;;;;;10.60;9.60;;;;;;;13.89;87.04;98003.80;444939;1274;142781;-62
2022/09/15 02:24:12;;;;;;;10.00;9.10;;;;;;;13.91;87.49;97997.11;446830;1274;142821;-62
2022/09/15 02:34:21;;;;;;;11.30;8.00;;;;;;;13.86;87.51;97994.16;446281;1273;141776;-63
2022/09/15 02:44:29;;;;;;;9.60;8.00;;;;;;;13.78;87.59;97993.48;446032;1274;142771;-61
2022/09/15 02:54:35;;;;;;;19.50;9.70;;;;;;;13.74;87.82;97984.58;446848;1274;144573;-62
2022/09/15 03:04:40;;;;;;;13.00;8.00;;;;;;;13.68;87.94;97970.70;446852;1274;142707;-62
2022/09/15 03:14:46;;;;;;;11.80;8.60;;;;;;;13.62;88.18;97989.10;446112;1274;143893;-61
2022/09/15 03:24:52;;;;;;;9.30;8.30;;;;;;;13.58;88.23;97992.05;446823;1274;142932;-61
2022/09/15 03:34:58;;;;;;;10.20;8.90;;;;;;;13.50;88.38;98011.73;446085;1274;143376;-61
2022/09/15 03:45:04;;;;;;;7.50;6.70;;;;;;;13.47;88.49;97998.88;446909;1274;197625;-62
2022/09/15 03:55:10;;;;;;;9.10;6.90;;;;;;;13.42;88.27;97994.22;440684;1273;146579;-61
2022/09/15 04:05:16;;;;;;;7.40;5.80;;;;;;;13.30;88.04;97992.25;445584;1274;142680;-61
2022/09/15 04:15:22;;;;;;;7.40;5.40;;;;;;;13.23;87.91;97990.87;446661;1271;142520;-61
2022/09/15 04:25:28;;;;;;;8.40;4.80;;;;;;;13.19;88.12;97997.86;446661;1273;143289;-61
2022/09/15 04:35:34;;;;;;;5.50;3.70;;;;;;;13.15;88.03;97998.13;446063;1273;143098;-62
2022/09/15 04:45:39;;;;;;;6.00;3.80;;;;;;;13.06;87.53;97997.11;446751;1273;143675;-61
2022/09/15 04:55:45;;;;;;;6.20;3.10;;;;;;;13.00;87.56;97999.73;446737;1274;142943;-62
2022/09/15 05:05:51;;;;;;;6.20;3.50;;;;;;;12.97;87.48;98004.29;445956;1273;141980;-61
2022/09/15 05:16:02;;;;;;;13.40;3.50;;;;;;;13.02;87.67;98026.25;446578;1274;141720;-62
2022/09/15 05:26:12;;;;;;;5.10;4.00;;;;;;;13.10;87.66;98023.75;445265;1273;143685;-62
2022/09/15 05:36:20;;;;;;;5.10;3.30;;;;;;;13.12;87.75;98025.48;435959;1273;142664;-61
2022/09/15 05:46:26;;;;;;;7.90;4.00;;;;;;;13.23;87.83;98003.52;446667;1274;142798;-62
2022/09/15 05:56:32;;;;;;;7.40;3.90;;;;;;;13.35;87.81;98016.02;445996;1274;141909;-62
2022/09/15 06:06:38;;;;;;;7.00;4.90;;;;;;;13.49;87.77;98030.98;446902;1274;141543;-62
2022/09/15 06:16:44;;;;;;;7.30;4.80;;;;;;;13.66;87.36;98036.66;446841;1274;143466;-62
2022/09/15 06:26:50;;;;;;;7.60;3.80;;;;;;;13.82;86.86;98031.90;446110;1274;144508;-62
2022/09/15 06:36:56;;;;;;;6.50;4.60;;;;;;;14.12;86.43;98037.45;446877;1274;199650;-62
2022/09/15 06:47:01;;;;;;;11.30;5.70;;;;;;;14.51;85.29;98050.31;445664;1275;144326;-62
2022/09/15 06:57:07;;;;;;;8.20;4.40;;;;;;;14.96;84.36;98055.70;446824;1274;142352;-63
2022/09/15 07:07:13;;;;;;;7.60;4.10;;;;;;;16.09;82.34;98068.95;446893;1274;146385;-63
2022/09/15 07:17:18;;;;;;;5.80;3.30;;;;;;;16.18;80.48;98074.98;446201;1274;144304;-62
2022/09/15 07:27:29;;;;;;;7.20;3.30;;;;;;;18.93;79.24;98082.06;446205;1274;198778;-62
2022/09/15 07:37:34;;;;;;;3.50;1.90;;;;;;;23.58;71.13;98087.15;446914;1274;142635;-61
2022/09/15 07:47:40;;;;;;;4.90;2.00;;;;;;;30.78;62.13;98086.39;446180;1274;143124;-62
2022/09/15 07:57:46;;;;;;;6.00;2.70;;;;;;;33.44;50.31;98085.52;446924;1272;145310;-61
2022/09/15 08:07:51;;;;;;;6.00;3.50;;;;;;;33.11;45.25;98102.77;446986;1274;142107;-62
2022/09/15 08:17:57;;;;;;;4.60;2.00;;;;;;;35.39;40.99;98111.11;447011;1274;141440;-62
2022/09/15 08:28:04;;;;;;;6.80;2.20;;;;;;;37.86;38.22;98114.26;446766;1274;153929;-63
2022/09/15 08:38:09;;;;;;;2.30;1.20;;;;;;;39.59;34.08;98115.27;446268;1274;141250;-62
2022/09/15 08:48:20;;;;;;;6.20;1.90;;;;;;;36.87;31.84;98123.73;445977;1274;1337392;-61
2022/09/15 08:58:28;;;;;;;6.50;1.70;;;;;;;29.00;35.47;98134.48;446793;1274;141844;-62
2022/09/15 09:08:50;;;;;;;3.90;1.90;;;;;;;26.35;38.52;98134.41;446257;1274;141720;-62
2022/09/15 09:19:21;;;;;;;3.60;2.00;;;;;;;24.72;40.33;98127.52;446976;1274;141801;-63
2022/09/15 09:29:34;;;;;;;3.10;1.60;;;;;;;22.59;42.81;98127.38;446244;1274;142626;-62
2022/09/15 09:39:40;;;;;;;3.00;1.80;;;;;;;22.02;44.84;98139.84;447002;1274;142271;-62
2022/09/15 09:49:49;;;;;;;5.70;1.70;;;;;;;22.26;45.11;98140.25;446524;1276;142059;-63
2022/09/15 09:59:55;;;;;;;6.50;2.50;;;;;;;21.88;45.68;98136.09;446271;1274;142380;-63
2022/09/15 10:10:01;;;;;;;12.70;2.10;;;;;;;22.05;45.62;98123.86;447038;1274;141691;-62
2022/09/15 10:20:24;;;;;;;4.90;1.40;;;;;;;21.87;45.60;98114.65;446307;1274;143642;-62
2022/09/15 10:30:30;;;;;;;3.60;1.50;;;;;;;21.23;46.49;98113.92;447045;1274;142432;-61
2022/09/15 10:40:45;;;;;;;5.90;1.60;;;;;;;20.53;47.48;98128.33;446934;1274;141519;-62
2022/09/15 10:50:58;;;;;;;4.40;1.70;;;;;;;20.40;48.55;98133.37;446284;1274;141966;-63
2022/09/15 11:01:21;;;;;;;3.40;1.10;;;;;;;20.50;48.31;98117.94;447056;1274;141350;-63
2022/09/15 11:11:35;;;;;;;5.80;1.40;;;;;;;20.56;47.94;98113.98;446314;1272;141626;-62
2022/09/15 11:21:47;;;;;;;3.90;1.40;;;;;;;20.76;48.10;98111.55;447057;1274;142804;-64
2022/09/15 11:32:00;;;;;;;4.70;1.60;;;;;;;20.39;47.93;98104.80;446978;1274;142094;-63
2022/09/15 11:42:11;;;;;;;;;;;;;;;20.28;48.72;98109.69;447059;1273;141889;-61
2022/09/15 11:52:34;;;;;;;6.90;2.00;;;;;;;20.55;48.53;98113.09;447214;1274;131243;-62
2022/09/15 12:02:47;;;;;;;4.80;1.70;;;;;;;19.84;49.31;98115.98;446272;1274;141755;-62
2022/09/15 12:12:55;;;;;;;2.10;1.40;;;;;;;19.82;49.98;98113.50;447040;1274;141621;-63
2022/09/15 12:23:02;;;;;;;;;;;;;;;20.09;50.21;98112.46;446339;1273;142492;-62
2022/09/15 12:33:53;;;;;;;5.50;1.40;;;;;;;20.33;49.83;98111.23;447263;1274;129183;-63
2022/09/15 12:44:14;;;;;;;3.50;1.50;;;;;;;20.52;49.53;98101.76;446288;1274;141504;-62
2022/09/15 12:54:27;;;;;;;5.20;2.10;;;;;;;20.06;49.69;98106.16;447031;1274;141776;-63
2022/09/15 13:04:56;;;;;;;8.00;2.00;;;;;;;19.32;50.65;98110.13;446923;1274;141714;-62
2022/09/15 13:15:05;;;;;;;6.00;1.90;;;;;;;18.33;52.44;98111.06;446935;1274;141915;-62
2022/09/15 13:25:19;;;;;;;5.10;1.70;;;;;;;17.79;53.78;98104.21;447033;1273;142740;-70
2022/09/15 13:35:38;;;;;;;6.10;1.60;;;;;;;17.62;54.08;98086.96;446232;1274;143283;-63
2022/09/15 13:45:57;;;;;;;2.00;1.00;;;;;;;17.78;54.37;98083.86;446406;1275;142582;-63
2022/09/15 13:56:06;;;;;;;5.50;1.50;;;;;;;17.95;53.76;98081.52;446267;1273;141476;-62
2022/09/15 14:06:15;;;;;;;4.10;1.40;;;;;;;17.79;53.58;98080.84;446944;1273;141891;-62
2022/09/15 14:16:28;;;;;;;6.60;1.60;;;;;;;18.25;53.17;98071.42;446857;1273;141887;-62
2022/09/15 14:26:36;;;;;;;4.30;1.70;;;;;;;18.58;52.59;98063.73;445919;1273;143615;-63
2022/09/15 14:36:42;;;;;;;3.10;1.40;;;;;;;18.26;52.88;98048.85;446719;1274;141471;-62
2022/09/15 14:46:48;;;;;;;6.20;2.20;;;;;;;18.09;53.46;98040.27;437048;1273;198410;-63
2022/09/15 14:56:56;;;;;;;3.30;1.20;;;;;;;18.16;53.86;98038.38;429474;1273;142228;-62
2022/09/15 15:07:07;;;;;;;5.10;1.90;;;;;;;18.10;53.92;98039.41;430592;1273;141626;-62
2022/09/15 15:17:27;;;;;;;3.50;1.50;;;;;;;18.06;54.14;98038.36;429975;1274;141820;-64
2022/09/15 15:27:42;;;;;;;2.90;1.80;;;;;;;17.71;54.97;98037.45;430055;1275;141997;-63
2022/09/15 15:37:49;;;;;;;4.30;1.80;;;;;;;17.47;55.41;98035.30;430916;1273;140659;-61
2022/09/15 15:47:55;;;;;;;3.20;1.80;;;;;;;17.42;55.85;98037.02;430315;1273;141716;-62
2022/09/15 15:58:01;;;;;;;6.30;2.00;;;;;;;17.31;56.18;98040.70;429863;1273;141952;-62
2022/09/15 16:08:11;;;;;;;10.00;2.30;;;;;;;16.85;56.87;98045.08;439818;1273;141688;-61
2022/09/15 16:18:17;;;;;;;6.60;3.00;;;;;;;16.48;57.93;98035.13;445724;1271;145271;-62
2022/09/15 16:28:23;;;;;;;7.00;2.40;;;;;;;16.07;58.93;98038.47;446953;1273;141086;-62
2022/09/15 16:38:28;;;;;;;5.60;2.30;;;;;;;15.73;59.71;98038.13;436427;1273;142566;-62
2022/09/15 16:48:34;;;;;;;3.70;2.80;;;;;;;15.39;60.41;98044.45;446819;1273;143424;-62
2022/09/15 16:58:40;;;;;;;7.30;2.90;;;;;;;14.98;61.58;98047.90;446848;1274;142589;-62
2022/09/15 17:08:46;;;;;;;4.30;2.50;;;;;;;14.66;62.59;98054.20;446056;1274;199692;-62
2022/09/15 17:18:52;;;;;;;4.20;3.00;;;;;;;14.46;63.69;98059.77;446896;1274;143182;-62
2022/09/15 17:28:57;;;;;;;3.60;2.60;;;;;;;14.33;64.62;98068.79;446168;1272;142114;-61
2022/09/15 17:39:03;;;;;;;8.20;3.00;;;;;;;14.26;65.23;98074.57;446912;1274;142258;-62
2022/09/15 17:49:09;;;;;;;5.70;2.90;;;;;;;14.08;65.92;98069.33;446902;1274;142614;-62
2022/09/15 17:59:14;;;;;;;4.90;2.80;;;;;;;13.89;66.45;98083.77;446123;1274;141846;-61
2022/09/15 18:09:21;;;;;;;4.70;2.50;;;;;;;13.73;66.91;98087.27;446928;1274;142746;-62
2022/09/15 18:19:26;;;;;;;8.50;3.10;;;;;;;13.76;67.54;98098.50;446923;1273;142581;-63
2022/09/15 18:29:32;;;;;;;5.30;3.50;;;;;;;13.82;67.72;98102.23;446138;1274;142363;-63
2022/09/15 18:39:38;;;;;;;7.10;3.40;;;;;;;13.86;67.85;98103.62;446787;1273;141783;-63
2022/09/15 18:49:43;;;;;;;6.00;3.20;;;;;;;13.90;68.50;98101.65;440701;1273;142317;-62
2022/09/15 18:59:49;;;;;;;6.40;4.00;;;;;;;13.86;68.65;98092.16;429840;1273;143447;-61
2022/09/15 19:09:55;;;;;;;6.70;3.80;;;;;;;13.82;69.12;98102.56;430453;1274;146873;-62
2022/09/15 19:20:02;;;;;;;7.10;4.10;;;;;;;13.71;69.69;98110.71;429686;1274;200296;-62
2022/09/15 19:30:10;;;;;;;5.10;4.60;;;;;;;13.61;70.18;98109.39;430967;1274;143558;-62
2022/09/15 19:40:16;;;;;;;11.90;5.30;;;;;;;13.48;70.70;98106.50;430148;1273;141595;-61
2022/09/15 19:50:23;;;;;;;5.20;4.60;;;;;;;13.37;70.80;98106.33;429857;1274;143603;-59
2022/09/15 20:00:29;;;;;;;7.70;4.90;;;;;;;13.24;71.13;98114.84;430410;1274;199496;-61
2022/09/15 20:10:38;;;;;;;5.30;4.20;;;;;;;13.07;71.71;98124.55;430765;1274;193966;-60
2022/09/15 20:20:44;;;;;;;5.20;4.30;;;;;;;12.89;72.23;98133.23;430235;1275;143044;-64
2022/09/15 20:31:00;;;;;;;10.70;4.40;;;;;;;12.60;72.76;98134.41;430716;1274;141839;-61
2022/09/15 20:41:08;;;;;;;4.40;4.00;;;;;;;12.20;73.70;98141.69;429729;1274;144094;-65
2022/09/15 20:51:15;;;;;;;6.10;3.90;;;;;;;11.90;74.36;98135.50;430512;1274;1564500;-62
2022/09/15 21:01:23;;;;;;;5.60;4.10;;;;;;;11.67;75.07;98133.39;428262;1276;142417;-59
2022/09/15 21:11:30;;;;;;;6.00;3.90;;;;;;;11.50;75.67;98144.38;445416;1274;143180;-62
2022/09/15 21:21:36;;;;;;;4.10;3.10;;;;;;;11.32;76.12;98148.68;437269;1275;144527;-62
2022/09/15 21:31:42;;;;;;;5.20;3.00;;;;;;;11.13;76.59;98149.98;430206;1274;143878;-61
2022/09/15 21:41:48;;;;;;;2.80;2.10;;;;;;;10.97;77.08;98155.23;429584;1274;147521;-61
2022/09/15 21:51:55;;;;;;;6.30;3.30;;;;;;;10.76;77.62;98163.58;437972;1274;145570;-62
2022/09/15 22:02:01;;;;;;;2.40;2.10;;;;;;;10.51;78.21;98169.86;446023;1274;144303;-62
2022/09/15 22:12:07;;;;;;;4.10;2.50;;;;;;;10.32;78.37;98176.36;446731;1274;143775;-62
2022/09/15 22:22:13;;;;;;;2.90;2.60;;;;;;;10.17;79.13;98187.61;446778;1274;142599;-62
2022/09/15 22:32:19;;;;;;;2.70;2.50;;;;;;;10.00;79.59;98197.44;446028;1274;142915;-62
2022/09/15 22:42:26;;;;;;;3.90;2.40;;;;;;;9.85;80.14;98206.51;446665;1274;141522;-62
2022/09/15 22:52:32;;;;;;;4.90;2.80;;;;;;;9.73;80.64;98210.50;446770;1274;200129;-62
2022/09/15 23:02:38;;;;;;;6.10;3.40;;;;;;;9.60;80.83;98220.43;446018;1274;143213;-62
2022/09/15 23:12:43;;;;;;;5.00;4.40;;;;;;;9.70;81.63;98223.66;446625;1275;142658;-66
2022/09/15 23:22:49;;;;;;;4.30;3.80;;;;;;;9.78;81.71;98220.55;446748;1274;142323;-62
2022/09/15 23:32:55;;;;;;;4.10;2.70;;;;;;;9.74;81.96;98214.73;445977;1274;141909;-61
2022/09/15 23:43:01;;;;;;;3.20;2.90;;;;;;;9.73;82.68;98220.25;446568;1276;142828;-62
2022/09/15 23:53:07;;;;;;;7.70;3.10;;;;;;;10.05;82.98;98218.31;445821;1276;143325;-62
